Wales, AK

4:10 PM AKDT on August 21, 2014 (GMT -0800)
Tin City LRRS | Change Station
CLOSE
Current Station
Airport
Location: Tin City,
Elevation: 272 ft
Nearby Weather Stations

Elev 272 ft 65.56 °N, 167.92 °W | Updated 15 minutes ago

Overcast
Overcast
50 °F
Feels Like 50 °F
N
24
Wind Variable Wind from SW

Today
High -- | Low -- °F
--% Chance of Precip.
Yesterday
High -- | Low -- °F
Precip. -- in
7:13 AM 11:13 PM
Waning Crescent, 11% visible
Pressure 30.22 in
Visibility 10.0 miles
Clouds Overcast 300 ft
Dew Point 49 °F
Humidity 97%
Rainfall 0.00 in
Snow Depth Not available.
UV 1 out of 12
Pollen Not available.
Air Quality Not available.
Flu Activity Not available.
METAR PATC 212355Z AUTO 22021KT 10SM OVC003 10/09 A3021 RMK AO2 PK WND 22026/2340 SLP233 T00980093 10103 20095 54001

More Conditions Fewer Conditions

Pressure 30.22 in
Visibility 10.0 miles
Clouds Overcast 300 ft
Dew Point 49 °F
Humidity 97%
Rainfall 0.00 in
Snow Depth Not available.
UV 1 out of 12
Pollen Not available.
Air Quality Not available.
Flu Activity Not available.
METAR PATC 212355Z AUTO 22021KT 10SM OVC003 10/09 A3021 RMK AO2 PK WND 22026/2340 SLP233 T00980093 10103 20095 54001

More Conditions Fewer Conditions

10-Day Weather Forecast

Almanac

Astronomy

Aug. 21, 2014 Rise Set
Actual Time 7:13 AM AKDT 11:13 PM AKDT
Civil Twilight 6:08 AM AKDT 12:17 AM AKDT
Nautical Twilight 3:56 AM AKDT 2:18 AM AKDT
Astronomical Twilight Sun does not rise Sun does not rise
Moon 3:10 AM AKDT (8/21) 9:24 PM AKDT (8/21)
Length of Visible Light 18h 09m
Length of Day
15h 59m
Tomorrow will be 7m 7s shorter.
Waning Crescent, 11% of the Moon is Illuminated
Today
Waning Crescent
Aug 25
New
Sep 2
First Quarter
Sep 8
Full
Sep 15
Last Quarter

Today's Extremes

State Highs State Lows

Community

WunderPhotos

Upload Photos

1,746,065 photos uploaded!

Nearby

Snow Depth

Station Depth Elevation
Rocky Point 4 in 500 ft
Gobblers Knob 0 in 2030 ft
Coldfoot 1 in 1040 ft
Atigun Pass 0 in 4800 ft
Imnaviat Creek 0 in 3050 ft

Earthquake Activity

City Distance Mag. Time & Date
No recent earthquake activity has been reported nearby.
Minimum magnitude displayed is 2.5.

Coastal Water Temperatures

Place Temperature
No Stations Reporting

Nearby Weather Stations